sensor_id;sensor_type;location;lat;lon;timestamp;temperature;humidity
52439;DHT22;38359;53.150;6.504;2023-04-25T00:03:01;7.20;99.90
52439;DHT22;38359;53.150;6.504;2023-04-25T00:13:26;7.10;99.90
52439;DHT22;38359;53.150;6.504;2023-04-25T00:23:53;7.20;99.90
52439;DHT22;38359;53.150;6.504;2023-04-25T00:34:18;7.10;99.90
52439;DHT22;38359;53.150;6.504;2023-04-25T00:44:45;7.00;99.90
52439;DHT22;38359;53.150;6.504;2023-04-25T00:55:12;6.90;99.90
52439;DHT22;38359;53.150;6.504;2023-04-25T01:05:40;6.80;99.90
52439;DHT22;38359;53.150;6.504;2023-04-25T01:16:06;6.80;99.90
52439;DHT22;38359;53.150;6.504;2023-04-25T01:26:33;6.70;99.90
52439;DHT22;38359;53.150;6.504;2023-04-25T01:37:00;6.70;99.90
52439;DHT22;38359;53.150;6.504;2023-04-25T01:47:29;6.70;99.90
52439;DHT22;38359;53.150;6.504;2023-04-25T01:57:55;6.60;99.90
52439;DHT22;38359;53.150;6.504;2023-04-25T02:08:21;6.50;99.90
52439;DHT22;38359;53.150;6.504;2023-04-25T02:18:47;6.50;99.90
52439;DHT22;38359;53.150;6.504;2023-04-25T02:29:13;6.50;99.90
52439;DHT22;38359;53.150;6.504;2023-04-25T02:39:40;6.50;99.90
52439;DHT22;38359;53.150;6.504;2023-04-25T02:50:06;6.40;99.90
52439;DHT22;38359;53.150;6.504;2023-04-25T03:00:32;6.50;99.90
52439;DHT22;38359;53.150;6.504;2023-04-25T03:10:58;6.40;99.90
52439;DHT22;38359;53.150;6.504;2023-04-25T03:21:24;6.40;99.90
52439;DHT22;38359;53.150;6.504;2023-04-25T03:31:50;6.20;99.90
52439;DHT22;38359;53.150;6.504;2023-04-25T03:42:16;6.10;99.90
52439;DHT22;38359;53.150;6.504;2023-04-25T03:52:43;5.80;99.90
52439;DHT22;38359;53.150;6.504;2023-04-25T04:03:09;5.70;99.90
52439;DHT22;38359;53.150;6.504;2023-04-25T04:13:36;5.50;99.90
52439;DHT22;38359;53.150;6.504;2023-04-25T04:24:02;5.50;99.90
52439;DHT22;38359;53.150;6.504;2023-04-25T04:34:28;5.40;99.90
52439;DHT22;38359;53.150;6.504;2023-04-25T04:44:54;5.30;99.90
52439;DHT22;38359;53.150;6.504;2023-04-25T04:55:21;5.50;99.90
52439;DHT22;38359;53.150;6.504;2023-04-25T05:05:47;5.20;99.90
52439;DHT22;38359;53.150;6.504;2023-04-25T05:16:13;5.30;99.90
52439;DHT22;38359;53.150;6.504;2023-04-25T05:26:39;5.50;99.90
52439;DHT22;38359;53.150;6.504;2023-04-25T05:37:05;5.60;99.90
52439;DHT22;38359;53.150;6.504;2023-04-25T05:47:31;5.50;99.90
52439;DHT22;38359;53.150;6.504;2023-04-25T05:57:56;5.80;99.90
52439;DHT22;38359;53.150;6.504;2023-04-25T06:08:22;5.90;99.90
52439;DHT22;38359;53.150;6.504;2023-04-25T06:18:48;6.90;99.90
52439;DHT22;38359;53.150;6.504;2023-04-25T06:29:14;6.70;99.90
52439;DHT22;38359;53.150;6.504;2023-04-25T06:39:39;6.90;99.90
52439;DHT22;38359;53.150;6.504;2023-04-25T06:50:06;6.90;99.90
52439;DHT22;38359;53.150;6.504;2023-04-25T07:00:32;6.90;99.90
52439;DHT22;38359;53.150;6.504;2023-04-25T07:10:58;6.80;99.90
52439;DHT22;38359;53.150;6.504;2023-04-25T07:21:24;7.00;99.90
52439;DHT22;38359;53.150;6.504;2023-04-25T07:31:50;7.10;99.90
52439;DHT22;38359;53.150;6.504;2023-04-25T07:42:16;7.30;99.90
52439;DHT22;38359;53.150;6.504;2023-04-25T07:52:42;8.00;99.90
52439;DHT22;38359;53.150;6.504;2023-04-25T08:03:09;7.50;99.90
52439;DHT22;38359;53.150;6.504;2023-04-25T08:13:35;6.90;99.90
52439;DHT22;38359;53.150;6.504;2023-04-25T08:24:01;7.70;99.90
52439;DHT22;38359;53.150;6.504;2023-04-25T08:34:26;6.30;99.90
52439;DHT22;38359;53.150;6.504;2023-04-25T08:44:53;6.50;99.90
52439;DHT22;38359;53.150;6.504;2023-04-25T08:55:21;6.30;99.90
52439;DHT22;38359;53.150;6.504;2023-04-25T09:05:49;6.20;99.90
52439;DHT22;38359;53.150;6.504;2023-04-25T09:16:15;6.70;99.90
52439;DHT22;38359;53.150;6.504;2023-04-25T09:26:42;7.70;99.90
52439;DHT22;38359;53.150;6.504;2023-04-25T09:37:10;8.10;99.90
52439;DHT22;38359;53.150;6.504;2023-04-25T09:47:37;8.30;99.90
52439;DHT22;38359;53.150;6.504;2023-04-25T09:58:05;7.70;99.90
52439;DHT22;38359;53.150;6.504;2023-04-25T10:08:33;8.40;99.90
52439;DHT22;38359;53.150;6.504;2023-04-25T10:19:01;8.50;99.90
52439;DHT22;38359;53.150;6.504;2023-04-25T10:29:28;8.50;99.90
52439;DHT22;38359;53.150;6.504;2023-04-25T10:39:54;8.40;99.90
52439;DHT22;38359;53.150;6.504;2023-04-25T10:50:20;9.10;99.90
52439;DHT22;38359;53.150;6.504;2023-04-25T11:00:45;9.40;99.90
52439;DHT22;38359;53.150;6.504;2023-04-25T11:11:11;8.80;99.90
52439;DHT22;38359;53.150;6.504;2023-04-25T11:21:38;8.90;99.90
52439;DHT22;38359;53.150;6.504;2023-04-25T11:32:04;9.00;99.90
52439;DHT22;38359;53.150;6.504;2023-04-25T11:42:30;9.40;99.90
52439;DHT22;38359;53.150;6.504;2023-04-25T11:52:56;9.30;99.90
52439;DHT22;38359;53.150;6.504;2023-04-25T12:03:22;9.40;99.90
52439;DHT22;38359;53.150;6.504;2023-04-25T12:13:52;9.40;99.90
52439;DHT22;38359;53.150;6.504;2023-04-25T12:24:23;9.30;99.90
52439;DHT22;38359;53.150;6.504;2023-04-25T12:34:51;8.90;99.90
52439;DHT22;38359;53.150;6.504;2023-04-25T12:45:16;8.90;99.90
52439;DHT22;38359;53.150;6.504;2023-04-25T12:55:42;9.00;99.90
52439;DHT22;38359;53.150;6.504;2023-04-25T13:06:08;9.00;99.90
52439;DHT22;38359;53.150;6.504;2023-04-25T13:16:34;9.90;99.90
52439;DHT22;38359;53.150;6.504;2023-04-25T13:27:00;9.50;99.90
52439;DHT22;38359;53.150;6.504;2023-04-25T13:37:26;8.70;99.90
52439;DHT22;38359;53.150;6.504;2023-04-25T13:47:52;9.60;99.90
52439;DHT22;38359;53.150;6.504;2023-04-25T13:58:19;9.40;99.90
52439;DHT22;38359;53.150;6.504;2023-04-25T14:08:45;9.90;99.90
52439;DHT22;38359;53.150;6.504;2023-04-25T14:19:11;11.50;99.90
52439;DHT22;38359;53.150;6.504;2023-04-25T14:29:37;10.10;99.90
52439;DHT22;38359;53.150;6.504;2023-04-25T14:40:03;9.60;99.90
52439;DHT22;38359;53.150;6.504;2023-04-25T14:50:30;9.90;99.90
52439;DHT22;38359;53.150;6.504;2023-04-25T15:00:56;9.70;99.90
52439;DHT22;38359;53.150;6.504;2023-04-25T15:11:21;9.20;99.90
52439;DHT22;38359;53.150;6.504;2023-04-25T15:21:47;8.80;99.90
52439;DHT22;38359;53.150;6.504;2023-04-25T15:32:14;10.20;99.90
52439;DHT22;38359;53.150;6.504;2023-04-25T15:42:48;9.90;99.90
52439;DHT22;38359;53.150;6.504;2023-04-25T15:53:17;8.50;99.90
52439;DHT22;38359;53.150;6.504;2023-04-25T16:03:43;9.90;99.90
52439;DHT22;38359;53.150;6.504;2023-04-25T16:14:09;11.60;99.90
52439;DHT22;38359;53.150;6.504;2023-04-25T16:24:35;9.70;99.90
52439;DHT22;38359;53.150;6.504;2023-04-25T16:35:01;11.90;99.90
52439;DHT22;38359;53.150;6.504;2023-04-25T16:45:27;11.10;99.90
52439;DHT22;38359;53.150;6.504;2023-04-25T16:55:53;11.40;99.90
52439;DHT22;38359;53.150;6.504;2023-04-25T17:06:18;10.10;99.90
52439;DHT22;38359;53.150;6.504;2023-04-25T17:16:44;10.70;99.90
52439;DHT22;38359;53.150;6.504;2023-04-25T17:27:10;9.30;99.90
52439;DHT22;38359;53.150;6.504;2023-04-25T17:37:36;8.70;99.90
52439;DHT22;38359;53.150;6.504;2023-04-25T17:48:02;8.00;99.90
52439;DHT22;38359;53.150;6.504;2023-04-25T17:58:28;8.00;99.90
52439;DHT22;38359;53.150;6.504;2023-04-25T18:08:54;7.70;99.90
52439;DHT22;38359;53.150;6.504;2023-04-25T18:19:21;8.10;99.90
52439;DHT22;38359;53.150;6.504;2023-04-25T18:29:47;7.40;99.90
52439;DHT22;38359;53.150;6.504;2023-04-25T18:40:13;6.90;99.90
52439;DHT22;38359;53.150;6.504;2023-04-25T18:50:40;6.50;99.90
52439;DHT22;38359;53.150;6.504;2023-04-25T19:01:08;5.90;99.90
52439;DHT22;38359;53.150;6.504;2023-04-25T19:11:34;5.90;99.90
52439;DHT22;38359;53.150;6.504;2023-04-25T19:22:00;6.00;99.90
52439;DHT22;38359;53.150;6.504;2023-04-25T19:32:26;5.70;99.90
52439;DHT22;38359;53.150;6.504;2023-04-25T19:42:52;5.90;99.90
52439;DHT22;38359;53.150;6.504;2023-04-25T19:53:18;5.70;99.90
52439;DHT22;38359;53.150;6.504;2023-04-25T20:03:43;5.70;99.90
52439;DHT22;38359;53.150;6.504;2023-04-25T20:14:12;5.60;99.90
52439;DHT22;38359;53.150;6.504;2023-04-25T20:24:38;5.40;99.90
52439;DHT22;38359;53.150;6.504;2023-04-25T20:35:05;5.30;99.90
52439;DHT22;38359;53.150;6.504;2023-04-25T20:45:33;5.20;99.90
52439;DHT22;38359;53.150;6.504;2023-04-25T20:56:00;5.10;99.90
52439;DHT22;38359;53.150;6.504;2023-04-25T21:06:27;4.80;99.90
52439;DHT22;38359;53.150;6.504;2023-04-25T21:16:53;4.90;99.90
52439;DHT22;38359;53.150;6.504;2023-04-25T21:27:18;4.80;99.90
52439;DHT22;38359;53.150;6.504;2023-04-25T21:37:45;4.80;99.90
52439;DHT22;38359;53.150;6.504;2023-04-25T21:48:11;4.80;99.90
52439;DHT22;38359;53.150;6.504;2023-04-25T21:58:36;4.70;99.90
52439;DHT22;38359;53.150;6.504;2023-04-25T22:09:02;4.70;99.90
52439;DHT22;38359;53.150;6.504;2023-04-25T22:19:29;5.00;99.90
52439;DHT22;38359;53.150;6.504;2023-04-25T22:29:55;5.00;99.90
52439;DHT22;38359;53.150;6.504;2023-04-25T22:40:20;5.00;99.90
52439;DHT22;38359;53.150;6.504;2023-04-25T22:50:46;4.90;99.90
52439;DHT22;38359;53.150;6.504;2023-04-25T23:01:12;4.70;99.90
52439;DHT22;38359;53.150;6.504;2023-04-25T23:11:40;4.60;99.90
52439;DHT22;38359;53.150;6.504;2023-04-25T23:22:06;4.20;99.90
52439;DHT22;38359;53.150;6.504;2023-04-25T23:32:33;4.10;99.90
52439;DHT22;38359;53.150;6.504;2023-04-25T23:42:59;4.20;99.90
52439;DHT22;38359;53.150;6.504;2023-04-25T23:53:26;4.20;99.90
